Time;durP1;ratioP1;P1;durP2;ratioP2;P2;SDS_P1;SDS_P2;PMS_P1;PMS_P2;Temp;Humidity;BMP_temperature;BMP_pressure;BME280_temperature;BME280_humidity;BME280_pressure;Samples;Min_cycle;Max_cycle;Signal;HPM_P1;HPM_P2
2022/11/03 00:00:30;;;;;;;;;;;15.90;95.50;;;;;;5072333;28;20284;-63
2022/11/03 00:02:56;;;;;;;;;;;15.90;95.50;;;;;;5072574;28;19912;-62
2022/11/03 00:08:06;;;;;;;;;;;15.90;95.60;;;;;;5073720;28;20357;-63
2022/11/03 00:10:31;;;;;;;;;;;15.90;95.70;;;;;;5074280;28;19948;-62
2022/11/03 00:12:57;;;;;;;;;;;15.90;95.60;;;;;;5074145;28;19908;-62
2022/11/03 00:15:22;;;;;;;;;;;16.00;95.40;;;;;;5073854;28;19919;-62
2022/11/03 00:17:48;;;;;;;;;;;16.00;95.30;;;;;;5074135;28;19908;-62
2022/11/03 00:20:13;;;;;;;;;;;16.10;95.20;;;;;;5073936;28;20003;-63
2022/11/03 00:22:39;;;;;;;;;;;16.00;95.30;;;;;;5074018;28;19935;-63
2022/11/03 00:25:05;;;;;;;;;;;16.00;95.40;;;;;;5073729;28;19916;-62
2022/11/03 00:27:30;;;;;;;;;;;16.10;95.30;;;;;;5073874;28;19908;-61
2022/11/03 00:29:56;;;;;;;;;;;16.10;95.20;;;;;;5072282;28;19909;-62
2022/11/03 00:32:21;;;;;;;;;;;16.20;95.10;;;;;;5073981;28;19989;-62
2022/11/03 00:34:47;;;;;;;;;;;16.20;95.00;;;;;;5072425;28;19999;-62
2022/11/03 00:37:13;;;;;;;;;;;16.20;95.00;;;;;;5073373;28;19934;-62
2022/11/03 00:39:38;;;;;;;;;;;16.30;94.90;;;;;;5073365;28;19915;-62
2022/11/03 00:42:04;;;;;;;;;;;16.30;94.90;;;;;;5073722;28;19962;-63
2022/11/03 00:44:29;;;;;;;;;;;16.30;94.90;;;;;;5073351;28;20426;-63
2022/11/03 00:46:55;;;;;;;;;;;16.30;94.80;;;;;;5073519;28;19991;-63
2022/11/03 00:49:20;;;;;;;;;;;16.30;94.80;;;;;;5072070;28;19908;-63
2022/11/03 00:51:46;;;;;;;;;;;16.30;94.80;;;;;;5073499;28;19912;-62
2022/11/03 00:54:11;;;;;;;;;;;16.30;94.70;;;;;;5072204;28;19962;-63
2022/11/03 00:56:39;;;;;;;;;;;16.30;94.60;;;;;;5073243;28;19962;-61
2022/11/03 00:59:05;;;;;;;;;;;16.20;94.70;;;;;;5073151;28;19995;-63
2022/11/03 01:01:35;;;;;;;;;;;16.30;94.70;;;;;;5072876;28;19913;-63
2022/11/03 01:06:50;;;;;;;;;;;16.30;94.70;;;;;;5072992;28;20327;-62
2022/11/03 01:09:26;;;;;;;;;;;16.30;94.70;;;;;;5071642;28;20015;-62
2022/11/03 01:11:55;;;;;;;;;;;16.30;94.70;;;;;;5072948;28;19912;-62
2022/11/03 01:14:21;;;;;;;;;;;16.30;94.80;;;;;;5073018;28;19969;-62
2022/11/03 01:16:46;;;;;;;;;;;16.30;95.10;;;;;;5072912;28;20369;-63
2022/11/03 01:19:12;;;;;;;;;;;16.30;94.90;;;;;;5071518;28;19909;-63
2022/11/03 01:21:37;;;;;;;;;;;16.20;94.90;;;;;;5071292;28;20011;-63
2022/11/03 01:24:03;;;;;;;;;;;16.30;94.90;;;;;;5072853;28;19912;-62
2022/11/03 01:26:29;;;;;;;;;;;16.30;94.90;;;;;;5072808;28;19908;-62
2022/11/03 01:28:55;;;;;;;;;;;16.30;94.80;;;;;;5072490;28;19931;-62
2022/11/03 01:31:22;;;;;;;;;;;16.30;94.70;;;;;;5086663;28;19909;-63
2022/11/03 01:33:51;;;;;;;;;;;16.30;94.60;;;;;;5071768;28;19963;-63
2022/11/03 01:36:17;;;;;;;;;;;16.30;94.60;;;;;;5072594;28;19908;-63
2022/11/03 01:38:43;;;;;;;;;;;16.30;94.60;;;;;;5072157;28;19908;-62
2022/11/03 01:41:13;;;;;;;;;;;16.30;94.60;;;;;;5072315;28;20375;-63
2022/11/03 01:43:39;;;;;;;;;;;16.40;94.60;;;;;;5070699;28;19908;-63
2022/11/03 01:46:15;;;;;;;;;;;16.30;94.60;;;;;;5072379;28;19915;-63
2022/11/03 01:49:00;;;;;;;;;;;16.30;94.70;;;;;;5072252;28;19915;-63
2022/11/03 01:51:27;;;;;;;;;;;16.30;94.70;;;;;;5072093;28;20327;-62
2022/11/03 01:53:56;;;;;;;;;;;16.30;94.60;;;;;;5072474;28;19908;-64
2022/11/03 01:56:22;;;;;;;;;;;16.30;94.60;;;;;;5072440;28;19908;-63
2022/11/03 01:58:49;;;;;;;;;;;16.30;94.60;;;;;;5072157;28;20399;-64
2022/11/03 02:01:14;;;;;;;;;;;16.40;94.70;;;;;;5072237;28;20007;-64
2022/11/03 02:03:42;;;;;;;;;;;16.40;94.60;;;;;;5071715;28;20007;-63
2022/11/03 02:06:08;;;;;;;;;;;16.30;94.60;;;;;;5101474;22;19956;-57
2022/11/03 02:08:46;;;;;;;;;;;16.40;94.60;;;;;;5051397;28;20400;-57
2022/11/03 02:13:55;;;;;;;;;;;16.30;94.60;;;;;;5051965;28;19962;-57
2022/11/03 02:16:22;;;;;;;;;;;16.30;94.70;;;;;;5051794;28;19920;-58
2022/11/03 02:18:48;;;;;;;;;;;16.30;94.70;;;;;;5051562;28;19909;-56
2022/11/03 02:21:26;;;;;;;;;;;16.30;94.70;;;;;;5051724;28;20276;-53
2022/11/03 02:24:10;;;;;;;;;;;16.30;94.80;;;;;;5051947;28;19909;-55
2022/11/03 02:26:36;;;;;;;;;;;16.30;94.80;;;;;;5052280;28;19911;-57
2022/11/03 02:29:01;;;;;;;;;;;16.30;94.80;;;;;;5051517;28;19998;-53
2022/11/03 02:31:47;;;;;;;;;;;16.20;94.70;;;;;;5038011;28;19954;-59
2022/11/03 02:34:15;;;;;;;;;;;16.30;94.70;;;;;;5051279;28;19955;-54
2022/11/03 02:36:52;;;;;;;;;;;16.20;94.70;;;;;;5050853;28;19912;-60
2022/11/03 02:39:17;;;;;;;;;;;16.30;94.70;;;;;;5040500;28;20373;-60
2022/11/03 02:41:45;;;;;;;;;;;16.30;94.80;;;;;;5052102;28;19960;-56
2022/11/03 02:44:13;;;;;;;;;;;16.20;94.70;;;;;;5051628;28;19913;-57
2022/11/03 02:46:39;;;;;;;;;;;16.20;94.80;;;;;;5055744;28;20388;-57
2022/11/03 02:49:05;;;;;;;;;;;16.20;94.80;;;;;;5055591;28;19916;-58
2022/11/03 02:51:31;;;;;;;;;;;16.20;94.80;;;;;;5055804;28;19909;-58
2022/11/03 02:54:19;;;;;;;;;;;16.20;94.90;;;;;;5055724;28;19909;-58
2022/11/03 02:56:48;;;;;;;;;;;16.10;95.00;;;;;;5055774;28;20258;-58
2022/11/03 02:59:18;;;;;;;;;;;16.10;95.10;;;;;;5055561;28;20018;-57
2022/11/03 03:01:46;;;;;;;;;;;16.10;95.10;;;;;;5041679;28;19913;-58
2022/11/03 03:04:16;;;;;;;;;;;16.10;94.90;;;;;;5054825;28;19999;-57
2022/11/03 03:06:45;;;;;;;;;;;16.10;94.90;;;;;;5055003;28;19920;-58
2022/11/03 03:09:14;;;;;;;;;;;16.10;94.90;;;;;;5055262;28;19919;-57
2022/11/03 03:11:41;;;;;;;;;;;16.10;94.90;;;;;;5055485;28;19916;-58
2022/11/03 03:14:12;;;;;;;;;;;16.10;94.90;;;;;;5055065;28;19908;-58
2022/11/03 03:16:47;;;;;;;;;;;16.10;94.90;;;;;;5055303;28;19921;-57
2022/11/03 03:19:22;;;;;;;;;;;16.10;94.90;;;;;;5047738;28;19908;-58
2022/11/03 03:21:51;;;;;;;;;;;16.20;94.90;;;;;;5055503;28;19909;-58
2022/11/03 03:24:29;;;;;;;;;;;16.20;95.00;;;;;;5055050;28;20003;-57
2022/11/03 03:26:58;;;;;;;;;;;16.10;95.00;;;;;;5055096;28;19962;-58
2022/11/03 03:29:39;;;;;;;;;;;16.10;95.00;;;;;;5054812;28;19915;-58
2022/11/03 03:32:06;;;;;;;;;;;16.10;94.90;;;;;;5055012;28;20058;-58
2022/11/03 03:34:33;;;;;;;;;;;16.10;95.10;;;;;;5055006;28;19908;-58
2022/11/03 03:36:59;;;;;;;;;;;16.10;95.10;;;;;;5054451;28;20273;-58
2022/11/03 03:39:27;;;;;;;;;;;16.10;95.20;;;;;;5054223;28;19908;-59
2022/11/03 03:41:54;;;;;;;;;;;16.10;95.30;;;;;;5053718;28;19909;-58
2022/11/03 03:44:20;;;;;;;;;;;16.10;95.30;;;;;;5054364;28;20269;-55
2022/11/03 03:46:50;;;;;;;;;;;16.10;95.30;;;;;;5054749;28;19962;-58
2022/11/03 03:49:16;;;;;;;;;;;16.10;95.20;;;;;;5054421;28;19916;-57
2022/11/03 03:51:42;;;;;;;;;;;16.10;95.10;;;;;;5053771;28;19908;-59
2022/11/03 03:54:07;;;;;;;;;;;16.20;95.10;;;;;;5054758;28;19909;-57
2022/11/03 03:56:40;;;;;;;;;;;16.20;95.20;;;;;;5053828;28;19918;-59
2022/11/03 03:59:06;;;;;;;;;;;16.20;95.10;;;;;;5054349;28;19908;-58
2022/11/03 04:01:31;;;;;;;;;;;16.20;95.10;;;;;;5054337;28;20334;-58
2022/11/03 04:03:57;;;;;;;;;;;16.10;95.00;;;;;;5053843;28;19959;-59
2022/11/03 04:06:22;;;;;;;;;;;16.20;95.00;;;;;;5051425;28;20340;-57
2022/11/03 04:08:48;;;;;;;;;;;16.20;95.00;;;;;;5047948;28;19909;-58
2022/11/03 04:22:16;;;;;;;;;;;16.20;94.90;;;;;;5067601;28;19915;-57
2022/11/03 04:24:42;;;;;;;;;;;16.20;95.00;;;;;;5054301;28;19998;-58
2022/11/03 04:27:20;;;;;;;;;;;16.20;95.10;;;;;;5053874;28;19962;-58
2022/11/03 04:29:45;;;;;;;;;;;16.20;95.20;;;;;;5054149;28;19909;-59
2022/11/03 04:32:14;;;;;;;;;;;16.20;95.20;;;;;;5053664;28;19982;-57
2022/11/03 04:34:40;;;;;;;;;;;16.20;95.20;;;;;;5053823;28;19916;-58
2022/11/03 04:37:08;;;;;;;;;;;16.20;95.10;;;;;;5053820;28;19912;-58
2022/11/03 04:39:34;;;;;;;;;;;16.20;95.30;;;;;;5032759;28;19927;-54
2022/11/03 04:41:59;;;;;;;;;;;16.10;95.30;;;;;;5052363;28;20286;-57
2022/11/03 04:44:25;;;;;;;;;;;16.10;95.40;;;;;;5052623;28;19967;-57
2022/11/03 04:46:52;;;;;;;;;;;16.00;95.50;;;;;;5052463;28;20007;-57
2022/11/03 04:49:21;;;;;;;;;;;16.00;95.70;;;;;;5053444;28;19917;-56
2022/11/03 04:51:47;;;;;;;;;;;16.00;95.70;;;;;;5053539;28;20325;-56
2022/11/03 04:54:14;;;;;;;;;;;16.00;95.80;;;;;;5052386;28;19908;-59
2022/11/03 04:56:40;;;;;;;;;;;16.00;95.60;;;;;;5053521;28;19958;-59
2022/11/03 04:59:12;;;;;;;;;;;16.10;95.60;;;;;;5053480;28;20632;-58
2022/11/03 05:01:38;;;;;;;;;;;16.10;95.60;;;;;;5053476;28;19940;-58
2022/11/03 05:04:10;;;;;;;;;;;16.10;95.60;;;;;;5053575;28;19931;-59
2022/11/03 05:06:35;;;;;;;;;;;16.10;95.60;;;;;;5052351;28;20277;-59
2022/11/03 05:09:04;;;;;;;;;;;16.10;95.60;;;;;;5052351;28;19905;-58
2022/11/03 05:11:33;;;;;;;;;;;16.00;95.70;;;;;;5053448;28;19917;-58
2022/11/03 05:14:03;;;;;;;;;;;15.90;96.00;;;;;;5053314;28;19904;-58
2022/11/03 05:16:29;;;;;;;;;;;15.90;96.10;;;;;;5053163;28;19908;-59
2022/11/03 05:18:55;;;;;;;;;;;15.90;96.00;;;;;;5053147;28;19940;-59
2022/11/03 05:21:23;;;;;;;;;;;15.90;95.90;;;;;;5053263;28;20423;-58
2022/11/03 05:23:51;;;;;;;;;;;16.00;95.90;;;;;;5053179;28;20338;-58
2022/11/03 05:26:18;;;;;;;;;;;15.90;96.00;;;;;;5052954;28;20265;-58
2022/11/03 05:28:47;;;;;;;;;;;16.20;96.00;;;;;;5052919;28;19912;-59
2022/11/03 05:31:24;;;;;;;;;;;16.00;96.00;;;;;;5053025;28;19905;-59
2022/11/03 05:33:51;;;;;;;;;;;16.00;95.70;;;;;;5052938;28;19909;-59
2022/11/03 05:36:21;;;;;;;;;;;16.00;95.70;;;;;;5052720;28;20003;-58
2022/11/03 05:38:47;;;;;;;;;;;16.00;95.80;;;;;;5052739;28;19904;-58
2022/11/03 05:41:23;;;;;;;;;;;16.00;95.70;;;;;;5052773;28;19963;-57
2022/11/03 05:43:57;;;;;;;;;;;16.00;95.60;;;;;;5052810;28;20378;-56
2022/11/03 05:46:23;;;;;;;;;;;16.00;95.70;;;;;;5034749;28;19982;-59
2022/11/03 05:48:48;;;;;;;;;;;16.00;95.80;;;;;;5052808;28;20377;-58
2022/11/03 05:51:18;;;;;;;;;;;15.90;95.90;;;;;;5052746;28;20261;-58
2022/11/03 05:53:43;;;;;;;;;;;16.00;95.90;;;;;;5052660;28;19905;-59
2022/11/03 05:56:16;;;;;;;;;;;16.00;95.90;;;;;;5052211;28;20019;-59
2022/11/03 05:58:43;;;;;;;;;;;16.00;95.70;;;;;;5052476;28;19905;-56
2022/11/03 06:01:11;;;;;;;;;;;16.00;95.90;;;;;;5052445;28;20015;-59
2022/11/03 06:03:37;;;;;;;;;;;16.00;95.90;;;;;;5052374;28;19905;-59
2022/11/03 06:06:10;;;;;;;;;;;16.00;95.90;;;;;;5052169;28;19912;-59
2022/11/03 06:08:35;;;;;;;;;;;16.00;95.70;;;;;;5052266;28;20352;-58
2022/11/03 06:11:02;;;;;;;;;;;16.00;95.60;;;;;;5052460;28;19944;-57
2022/11/03 06:13:35;;;;;;;;;;;16.10;95.50;;;;;;5052280;28;19905;-59
2022/11/03 06:16:24;;;;;;;;;;;16.10;95.50;;;;;;5052128;28;19912;-59
2022/11/03 06:18:50;;;;;;;;;;;16.00;95.40;;;;;;5041114;28;19904;-56
2022/11/03 06:21:19;;;;;;;;;;;16.00;95.60;;;;;;5051958;28;19905;-58
2022/11/03 06:23:45;;;;;;;;;;;16.00;95.60;;;;;;5052208;28;19927;-58
2022/11/03 06:26:17;;;;;;;;;;;16.10;95.50;;;;;;5052098;28;20345;-54
2022/11/03 06:28:44;;;;;;;;;;;16.10;95.50;;;;;;5051956;28;19905;-59
2022/11/03 06:31:21;;;;;;;;;;;16.20;95.40;;;;;;5052037;28;19999;-55
2022/11/03 06:33:47;;;;;;;;;;;16.10;95.30;;;;;;5052154;28;19911;-57
2022/11/03 06:36:18;;;;;;;;;;;16.20;95.30;;;;;;5051990;28;19916;-60
2022/11/03 06:38:51;;;;;;;;;;;16.20;95.20;;;;;;5052024;28;19905;-56
2022/11/03 06:41:21;;;;;;;;;;;16.20;95.20;;;;;;5052090;28;19905;-59
2022/11/03 06:43:47;;;;;;;;;;;16.20;95.10;;;;;;5052516;28;20440;-56
2022/11/03 06:46:33;;;;;;;;;;;16.20;95.20;;;;;;5051859;28;19943;-55
2022/11/03 06:48:59;;;;;;;;;;;16.20;95.30;;;;;;5051175;28;19912;-57
2022/11/03 06:51:26;;;;;;;;;;;16.10;95.40;;;;;;5034023;28;19955;-58
2022/11/03 06:53:52;;;;;;;;;;;16.10;95.60;;;;;;5051817;28;19912;-56
2022/11/03 06:56:20;;;;;;;;;;;16.00;95.80;;;;;;5051706;28;19908;-57
2022/11/03 06:58:47;;;;;;;;;;;15.80;96.20;;;;;;5051776;28;20030;-55
2022/11/03 07:01:28;;;;;;;;;;;15.90;96.20;;;;;;5051856;28;19908;-59
2022/11/03 07:04:00;;;;;;;;;;;15.90;96.10;;;;;;5051800;28;20039;-60
2022/11/03 07:06:28;;;;;;;;;;;16.00;96.10;;;;;;5051542;28;19913;-58
2022/11/03 07:09:00;;;;;;;;;;;16.00;96.10;;;;;;5051813;28;19905;-61
2022/11/03 07:11:27;;;;;;;;;;;16.00;95.90;;;;;;5051858;28;19911;-60
2022/11/03 07:14:16;;;;;;;;;;;16.00;96.10;;;;;;5033825;28;19951;-58
2022/11/03 07:16:47;;;;;;;;;;;16.00;95.90;;;;;;5049853;28;19921;-60
2022/11/03 07:19:16;;;;;;;;;;;15.90;96.20;;;;;;5049257;28;19931;-57
2022/11/03 07:21:48;;;;;;;;;;;15.90;96.40;;;;;;5051350;28;20003;-60
2022/11/03 07:24:52;;;;;;;;;;;15.90;96.40;;;;;;5051728;28;19912;-60
2022/11/03 07:27:28;;;;;;;;;;;16.00;96.40;;;;;;4989739;28;19912;-59
2022/11/03 07:29:58;;;;;;;;;;;16.00;96.20;;;;;;4989860;28;19912;-60
2022/11/03 07:32:27;;;;;;;;;;;16.00;96.10;;;;;;5026578;28;19932;-56
2022/11/03 07:34:56;;;;;;;;;;;15.90;96.30;;;;;;5055365;28;20358;-59
2022/11/03 07:37:23;;;;;;;;;;;15.90;96.30;;;;;;5055329;28;19944;-56
2022/11/03 07:39:49;;;;;;;;;;;16.00;96.40;;;;;;5037039;28;19959;-55
2022/11/03 07:42:20;;;;;;;;;;;16.00;96.50;;;;;;5054569;28;19908;-56
2022/11/03 07:44:46;;;;;;;;;;;16.00;96.40;;;;;;5054857;28;20292;-59
2022/11/03 07:47:25;;;;;;;;;;;16.10;96.30;;;;;;5054790;28;19909;-57
2022/11/03 07:49:51;;;;;;;;;;;15.90;96.50;;;;;;5054901;28;20435;-58
2022/11/03 07:52:21;;;;;;;;;;;16.00;96.30;;;;;;5055003;28;19905;-57
2022/11/03 07:54:47;;;;;;;;;;;16.00;96.00;;;;;;5037003;28;20365;-58
2022/11/03 07:57:24;;;;;;;;;;;16.00;96.00;;;;;;5054700;28;19909;-59
2022/11/03 07:59:50;;;;;;;;;;;16.10;95.90;;;;;;5054574;28;19911;-59
2022/11/03 08:02:28;;;;;;;;;;;16.10;95.70;;;;;;5054801;28;19958;-59
2022/11/03 08:04:53;;;;;;;;;;;16.20;95.80;;;;;;5054338;28;19948;-59
2022/11/03 08:07:19;;;;;;;;;;;16.20;95.70;;;;;;5036940;28;20027;-59
2022/11/03 08:09:44;;;;;;;;;;;16.20;95.60;;;;;;5054511;28;19905;-59
2022/11/03 08:12:10;;;;;;;;;;;16.20;95.50;;;;;;5054584;28;19911;-60
2022/11/03 08:14:36;;;;;;;;;;;16.20;96.00;;;;;;5054522;28;19911;-64
2022/11/03 08:17:02;;;;;;;;;;;16.20;95.70;;;;;;5054283;28;19909;-60
2022/11/03 08:19:28;;;;;;;;;;;16.30;95.50;;;;;;5054309;28;19951;-58
2022/11/03 08:21:54;;;;;;;;;;;16.40;95.60;;;;;;5036465;28;19904;-61
2022/11/03 08:24:19;;;;;;;;;;;16.60;95.50;;;;;;5054397;28;20293;-60
2022/11/03 08:26:45;;;;;;;;;;;16.80;95.00;;;;;;5054231;28;19905;-60
2022/11/03 08:29:11;;;;;;;;;;;16.90;94.30;;;;;;5054090;28;19905;-59
2022/11/03 08:31:36;;;;;;;;;;;17.00;94.60;;;;;;5053945;28;19908;-58
2022/11/03 08:34:02;;;;;;;;;;;17.00;94.40;;;;;;5054069;28;19904;-61
2022/11/03 08:36:27;;;;;;;;;;;17.10;93.90;;;;;;5053953;28;19924;-61
2022/11/03 08:38:53;;;;;;;;;;;17.10;94.00;;;;;;5053965;28;20001;-61
2022/11/03 08:41:18;;;;;;;;;;;17.20;93.50;;;;;;5052871;28;19909;-59
2022/11/03 08:43:44;;;;;;;;;;;17.10;93.10;;;;;;5053598;28;20003;-60
2022/11/03 08:46:09;;;;;;;;;;;17.20;93.50;;;;;;5053893;28;19905;-60
2022/11/03 08:48:35;;;;;;;;;;;17.20;93.10;;;;;;5053670;28;19967;-60
2022/11/03 08:51:00;;;;;;;;;;;17.20;93.50;;;;;;5053735;28;19908;-60
2022/11/03 08:53:26;;;;;;;;;;;17.20;93.50;;;;;;5053771;28;19905;-60
2022/11/03 08:55:52;;;;;;;;;;;17.20;92.70;;;;;;5053593;28;19909;-58
2022/11/03 08:58:18;;;;;;;;;;;17.20;93.10;;;;;;5053511;28;19905;-60
2022/11/03 09:00:43;;;;;;;;;;;17.20;93.20;;;;;;5053660;28;20262;-60
2022/11/03 09:03:09;;;;;;;;;;;17.20;93.30;;;;;;5053824;28;19905;-60
2022/11/03 09:05:35;;;;;;;;;;;17.30;93.10;;;;;;5053393;28;20285;-59
2022/11/03 09:08:01;;;;;;;;;;;17.30;93.40;;;;;;5053552;28;19919;-59
2022/11/03 09:10:26;;;;;;;;;;;17.40;93.30;;;;;;5053321;28;19905;-60
2022/11/03 09:12:52;;;;;;;;;;;17.40;93.10;;;;;;5053471;28;19912;-60
2022/11/03 09:15:18;;;;;;;;;;;17.50;92.80;;;;;;5053172;28;19905;-60
2022/11/03 09:17:43;;;;;;;;;;;17.40;92.90;;;;;;5052482;28;19908;-60
2022/11/03 09:20:09;;;;;;;;;;;17.50;92.80;;;;;;5053084;28;19911;-61
2022/11/03 09:22:35;;;;;;;;;;;17.40;92.70;;;;;;5053237;28;19905;-60
2022/11/03 09:25:01;;;;;;;;;;;17.40;92.50;;;;;;5052876;28;20396;-60
2022/11/03 09:27:26;;;;;;;;;;;17.40;92.30;;;;;;5053095;28;20316;-60
2022/11/03 09:29:52;;;;;;;;;;;17.30;92.50;;;;;;5052863;28;20375;-60
2022/11/03 09:32:18;;;;;;;;;;;17.40;92.80;;;;;;5052945;28;19905;-60
2022/11/03 09:34:44;;;;;;;;;;;17.40;92.50;;;;;;5034939;28;19958;-59
2022/11/03 09:37:09;;;;;;;;;;;17.50;92.80;;;;;;5052704;28;20012;-60
2022/11/03 09:39:35;;;;;;;;;;;17.50;92.00;;;;;;5052611;28;20372;-60
2022/11/03 09:42:02;;;;;;;;;;;17.50;92.10;;;;;;5052842;28;19973;-60
2022/11/03 09:44:29;;;;;;;;;;;17.50;92.50;;;;;;5052800;28;19908;-61
2022/11/03 09:46:54;;;;;;;;;;;17.60;92.30;;;;;;5052580;28;19905;-60
2022/11/03 09:49:20;;;;;;;;;;;17.70;92.30;;;;;;5052445;28;19991;-60
2022/11/03 09:51:46;;;;;;;;;;;17.80;91.50;;;;;;5052624;28;20054;-60
2022/11/03 09:54:15;;;;;;;;;;;17.90;91.10;;;;;;5034170;28;19904;-60
2022/11/03 09:56:41;;;;;;;;;;;17.90;90.80;;;;;;5052551;28;19912;-60
2022/11/03 09:59:25;;;;;;;;;;;18.00;90.20;;;;;;5052314;28;19904;-60
2022/11/03 10:01:52;;;;;;;;;;;18.00;90.50;;;;;;5052558;28;20381;-60
2022/11/03 10:04:27;;;;;;;;;;;18.00;90.10;;;;;;5052386;28;20007;-60
2022/11/03 10:06:53;;;;;;;;;;;18.00;90.60;;;;;;5052093;28;19916;-60
2022/11/03 10:09:19;;;;;;;;;;;18.10;90.50;;;;;;5052248;28;19966;-60
2022/11/03 10:11:45;;;;;;;;;;;18.10;90.30;;;;;;5052272;28;20281;-61
2022/11/03 10:14:12;;;;;;;;;;;18.10;90.00;;;;;;5052286;28;20003;-60
2022/11/03 10:16:39;;;;;;;;;;;18.20;89.90;;;;;;5052019;28;19948;-61
2022/11/03 10:19:07;;;;;;;;;;;18.20;90.10;;;;;;5052093;28;19995;-61
2022/11/03 10:21:33;;;;;;;;;;;18.30;90.40;;;;;;5052152;28;19919;-59
2022/11/03 10:23:59;;;;;;;;;;;18.30;89.20;;;;;;5052182;28;19905;-58
2022/11/03 10:26:24;;;;;;;;;;;18.30;88.20;;;;;;5052445;28;20278;-60
2022/11/03 10:28:59;;;;;;;;;;;18.30;89.20;;;;;;5051928;28;19967;-60
2022/11/03 10:31:30;;;;;;;;;;;18.40;88.50;;;;;;5052179;28;19905;-61
2022/11/03 10:33:56;;;;;;;;;;;18.30;88.60;;;;;;5051954;28;19905;-60
2022/11/03 10:36:21;;;;;;;;;;;18.30;88.10;;;;;;5051884;28;19962;-60
2022/11/03 10:38:47;;;;;;;;;;;18.30;87.40;;;;;;5051854;28;19909;-60
2022/11/03 10:41:14;;;;;;;;;;;18.30;88.90;;;;;;5051931;28;20308;-60
2022/11/03 10:43:40;;;;;;;;;;;18.10;89.20;;;;;;5052091;28;19947;-59
2022/11/03 10:46:12;;;;;;;;;;;18.10;89.90;;;;;;5051871;28;19951;-60
2022/11/03 10:48:38;;;;;;;;;;;18.20;89.50;;;;;;5051689;28;19908;-60
2022/11/03 10:51:03;;;;;;;;;;;18.30;90.20;;;;;;5051919;28;19958;-60
2022/11/03 10:53:30;;;;;;;;;;;18.20;88.20;;;;;;5033891;28;20034;-60
2022/11/03 10:55:56;;;;;;;;;;;18.30;88.80;;;;;;5051709;28;19916;-60
2022/11/03 10:58:22;;;;;;;;;;;18.30;88.70;;;;;;5033865;28;20331;-60
2022/11/03 11:00:47;;;;;;;;;;;18.40;89.30;;;;;;5051856;28;20430;-60
2022/11/03 11:03:13;;;;;;;;;;;18.50;89.50;;;;;;5051724;28;19909;-60
2022/11/03 11:05:45;;;;;;;;;;;18.50;89.10;;;;;;5051721;28;19909;-60
2022/11/03 11:08:12;;;;;;;;;;;18.40;87.60;;;;;;5054883;28;20342;-60
2022/11/03 11:10:42;;;;;;;;;;;18.30;88.50;;;;;;5055603;28;19904;-60
2022/11/03 11:13:17;;;;;;;;;;;18.30;88.20;;;;;;5055664;28;19905;-60
2022/11/03 11:15:47;;;;;;;;;;;18.20;88.50;;;;;;5054341;28;19923;-60
2022/11/03 11:18:28;;;;;;;;;;;18.20;88.50;;;;;;5054865;28;20396;-60
2022/11/03 11:20:56;;;;;;;;;;;18.10;89.70;;;;;;5035519;28;19908;-59
2022/11/03 11:23:28;;;;;;;;;;;18.10;89.90;;;;;;5039667;28;19908;-60
2022/11/03 11:26:09;;;;;;;;;;;18.20;88.90;;;;;;5052742;28;19909;-60
2022/11/03 11:28:39;;;;;;;;;;;18.20;88.40;;;;;;5057938;28;19938;-58
2022/11/03 11:31:23;;;;;;;;;;;18.10;89.90;;;;;;5056499;28;19912;-60
2022/11/03 11:33:49;;;;;;;;;;;18.10;90.30;;;;;;5053073;28;19909;-60
2022/11/03 11:36:20;;;;;;;;;;;18.00;90.50;;;;;;5054749;28;19920;-63
2022/11/03 11:38:54;;;;;;;;;;;17.90;90.20;;;;;;5054727;28;19912;-64
2022/11/03 11:41:20;;;;;;;;;;;17.70;90.60;;;;;;5053914;28;19985;-60
2022/11/03 11:43:46;;;;;;;;;;;17.60;90.70;;;;;;5048421;28;20389;-59
2022/11/03 11:46:30;;;;;;;;;;;17.60;91.00;;;;;;5053906;28;19951;-60
2022/11/03 11:48:55;;;;;;;;;;;17.60;91.00;;;;;;5052522;28;20278;-60
2022/11/03 11:51:21;;;;;;;;;;;17.50;90.90;;;;;;5054407;28;19916;-59
2022/11/03 11:53:49;;;;;;;;;;;17.50;90.90;;;;;;5054141;28;19909;-57
2022/11/03 11:56:15;;;;;;;;;;;17.40;91.30;;;;;;5040927;28;19960;-60
2022/11/03 11:58:41;;;;;;;;;;;17.40;91.70;;;;;;5051785;28;19948;-60
2022/11/03 12:01:18;;;;;;;;;;;17.40;91.40;;;;;;5054242;28;19916;-59
2022/11/03 12:03:45;;;;;;;;;;;17.40;91.60;;;;;;5053410;28;19909;-59
2022/11/03 12:06:14;;;;;;;;;;;17.30;91.90;;;;;;5036169;28;19920;-59
2022/11/03 12:08:40;;;;;;;;;;;17.40;92.10;;;;;;5054176;28;19908;-59
2022/11/03 12:11:06;;;;;;;;;;;17.40;92.10;;;;;;5054231;28;19909;-60
2022/11/03 12:13:42;;;;;;;;;;;17.50;91.30;;;;;;5036492;28;20113;-58
2022/11/03 12:16:08;;;;;;;;;;;17.50;91.90;;;;;;5053991;28;19917;-59
2022/11/03 12:18:41;;;;;;;;;;;17.60;91.80;;;;;;5052584;28;20381;-59
2022/11/03 12:21:13;;;;;;;;;;;17.80;91.80;;;;;;5052908;28;19911;-60
2022/11/03 12:23:40;;;;;;;;;;;18.00;91.80;;;;;;5053757;28;19909;-59
2022/11/03 12:26:13;;;;;;;;;;;18.00;90.90;;;;;;5054025;28;19928;-59
2022/11/03 12:28:38;;;;;;;;;;;18.20;90.50;;;;;;5034670;28;19911;-58
2022/11/03 12:31:04;;;;;;;;;;;18.20;90.50;;;;;;5052974;28;19904;-58
2022/11/03 12:33:30;;;;;;;;;;;18.10;90.60;;;;;;5052675;28;19909;-59
2022/11/03 12:35:55;;;;;;;;;;;18.30;90.50;;;;;;5053831;28;19923;-59
2022/11/03 12:38:22;;;;;;;;;;;18.40;90.00;;;;;;5053263;28;19913;-59
2022/11/03 12:40:47;;;;;;;;;;;18.50;90.20;;;;;;5036096;28;19940;-58
2022/11/03 12:43:13;;;;;;;;;;;18.50;89.70;;;;;;5036125;28;19916;-59
2022/11/03 12:45:39;;;;;;;;;;;18.90;88.40;;;;;;5053664;28;20266;-61
2022/11/03 12:48:06;;;;;;;;;;;19.80;87.10;;;;;;5052489;28;20349;-59
2022/11/03 12:50:31;;;;;;;;;;;20.60;83.90;;;;;;5053806;28;19909;-58
2022/11/03 12:52:57;;;;;;;;;;;21.10;79.70;;;;;;5053155;28;19916;-59
2022/11/03 12:55:23;;;;;;;;;;;21.50;80.70;;;;;;5037079;28;20369;-59
2022/11/03 12:57:48;;;;;;;;;;;21.80;79.90;;;;;;5052920;28;19909;-58
2022/11/03 13:00:14;;;;;;;;;;;21.70;76.90;;;;;;5036278;28;19916;-59
2022/11/03 13:02:39;;;;;;;;;;;21.70;78.40;;;;;;5053296;28;20010;-60
2022/11/03 13:05:05;;;;;;;;;;;21.90;77.90;;;;;;5052064;28;19916;-59
2022/11/03 13:07:31;;;;;;;;;;;22.00;77.40;;;;;;5052623;28;19919;-58
2022/11/03 13:09:57;;;;;;;;;;;22.00;74.50;;;;;;5053345;28;19904;-59
2022/11/03 13:12:32;;;;;;;;;;;21.80;74.90;;;;;;5053455;28;20423;-60
2022/11/03 13:14:59;;;;;;;;;;;21.50;74.80;;;;;;5053053;28;20058;-60
2022/11/03 13:17:25;;;;;;;;;;;21.70;72.10;;;;;;5053067;28;19912;-59
2022/11/03 13:19:50;;;;;;;;;;;21.90;72.40;;;;;;5053152;28;19904;-59
2022/11/03 13:22:16;;;;;;;;;;;21.90;74.40;;;;;;5053117;28;19992;-60
2022/11/03 13:24:42;;;;;;;;;;;22.00;73.70;;;;;;5053000;28;19932;-60
2022/11/03 13:27:07;;;;;;;;;;;21.90;74.00;;;;;;5053037;28;19944;-60
2022/11/03 13:29:33;;;;;;;;;;;21.70;75.80;;;;;;5051979;28;19908;-59
2022/11/03 13:31:59;;;;;;;;;;;21.50;75.40;;;;;;5052993;28;19904;-60
2022/11/03 13:34:24;;;;;;;;;;;21.50;77.00;;;;;;5052642;28;19904;-60
2022/11/03 13:36:50;;;;;;;;;;;21.60;74.90;;;;;;5052649;28;19919;-60
2022/11/03 13:39:15;;;;;;;;;;;21.60;76.50;;;;;;5052791;28;19950;-60
2022/11/03 13:41:41;;;;;;;;;;;21.50;77.30;;;;;;5052856;28;19911;-59
2022/11/03 13:44:07;;;;;;;;;;;21.40;77.40;;;;;;5052506;28;19905;-59
2022/11/03 13:46:33;;;;;;;;;;;21.20;77.70;;;;;;5052224;28;19915;-59
2022/11/03 13:48:59;;;;;;;;;;;21.10;77.80;;;;;;5052235;28;19905;-60
2022/11/03 13:51:24;;;;;;;;;;;20.80;78.30;;;;;;5034001;28;19904;-60
2022/11/03 13:53:50;;;;;;;;;;;20.60;80.00;;;;;;5051921;28;19908;-59
2022/11/03 13:56:15;;;;;;;;;;;20.50;80.00;;;;;;5051767;28;19912;-59
2022/11/03 13:58:41;;;;;;;;;;;20.40;81.10;;;;;;5052523;28;19920;-60
2022/11/03 14:01:06;;;;;;;;;;;20.30;81.20;;;;;;5038405;28;19911;-59
2022/11/03 14:03:32;;;;;;;;;;;20.10;80.20;;;;;;5052204;28;20332;-60
2022/11/03 14:05:58;;;;;;;;;;;20.00;81.90;;;;;;5052798;28;20278;-60
2022/11/03 14:08:23;;;;;;;;;;;19.90;81.90;;;;;;5052227;28;19962;-60
2022/11/03 14:10:49;;;;;;;;;;;19.80;81.80;;;;;;5052300;28;19909;-59
2022/11/03 14:13:14;;;;;;;;;;;19.80;83.00;;;;;;5052088;28;19916;-60
2022/11/03 14:15:40;;;;;;;;;;;19.80;83.10;;;;;;5052039;28;19912;-60
2022/11/03 14:18:05;;;;;;;;;;;19.80;82.20;;;;;;5052049;28;19981;-59
2022/11/03 14:20:31;;;;;;;;;;;19.70;83.10;;;;;;5047680;28;19982;-60
2022/11/03 14:22:56;;;;;;;;;;;19.70;83.70;;;;;;5052183;28;19952;-59
2022/11/03 14:25:22;;;;;;;;;;;19.70;82.90;;;;;;5052082;28;19909;-60
2022/11/03 14:27:49;;;;;;;;;;;19.70;82.60;;;;;;5052417;28;19996;-60
2022/11/03 14:30:15;;;;;;;;;;;19.70;82.30;;;;;;5051721;28;19996;-59
2022/11/03 14:32:40;;;;;;;;;;;19.70;82.30;;;;;;5051498;28;19991;-60
2022/11/03 14:35:06;;;;;;;;;;;19.60;83.40;;;;;;5051451;28;19909;-60
2022/11/03 14:37:32;;;;;;;;;;;19.60;83.00;;;;;;5052062;28;19996;-58
2022/11/03 14:39:57;;;;;;;;;;;19.50;82.70;;;;;;5051786;28;19926;-60